Latest Weather Observations for Bickley

IDW60801

Issued at 3:32 pm WST Sunday 30 August 2015 (issued every 30 minutes, with the page automatically refreshed every 10 minutes)

About weather observations | Map of weather stations | Latest weather observations for WA | Other Formats
Station Details ID: 009240 Name: BICKLEY Lat: -32.01 Lon: 116.14 Height: 384.0 m
Data from the previous 72 hours. | See also: Recent months at Bickley
Date/Time
WST
Temp
°C
App
Temp
°C
Dew
Point
Rel
Hum
%
Delta-T
°C
Wind Press
QNH
hPa
Press
MSL
hPa
Rain
since 9 am
mm
Dir
 
Spd
km/h
Gust
km/h
Spd
kts
Gust
kts
30/03:30pm 14.5 10.7 5.6 55 4.3 WSW 15 30 8 16 - - 0.0
30/03:00pm 15.1 11.1 4.8 50 4.9 W 15 28 8 15 - - 0.0
30/02:30pm 15.3 11.2 6.1 54 4.5 W 17 32 9 17 - - 0.0
30/02:00pm 14.9 11.2 6.2 56 4.3 W 15 26 8 14 - - 0.0
30/01:30pm 14.9 11.9 6.0 55 4.4 W 11 24 6 13 - - 0.0
30/01:00pm 14.5 10.9 4.8 52 4.6 WSW 13 22 7 12 - - 0.0
30/12:30pm 14.6 11.1 7.2 61 3.7 WSW 15 24 8 13 - - 0.0
30/12:00pm 14.5 11.4 8.7 68 3.0 WSW 15 26 8 14 - - 0.0
30/11:30am 13.9 10.8 8.7 71 2.7 W 15 24 8 13 - - 0.0
30/11:00am 14.2 11.5 9.0 71 2.7 WSW 13 28 7 15 - - 0.0
30/10:30am 13.3 10.9 10.1 81 1.7 SSW 13 24 7 13 - - 0.0
30/10:00am 12.6 10.0 10.8 89 1.0 SW 15 24 8 13 - - 0.0
30/09:30am 12.5 10.5 11.4 93 0.6 SW 13 20 7 11 - - 0.0
30/09:00am 11.7 9.9 10.9 95 0.4 SW 11 20 6 11 - - 12.6
30/08:30am 11.2 9.3 10.6 96 0.3 SSW 11 20 6 11 - - 12.6
30/08:00am 10.4 7.9 9.8 96 0.3 SSW 13 22 7 12 - - 12.6
30/07:30am 10.4 7.5 9.8 96 0.3 SW 15 26 8 14 - - 12.4
30/07:00am 10.1 7.5 9.5 96 0.3 SW 13 17 7 9 - - 12.4
30/06:30am 10.4 7.9 9.8 96 0.3 SW 13 20 7 11 - - 12.4
30/06:00am 10.5 8.4 9.9 96 0.3 SW 11 17 6 9 - - 12.4
30/05:30am 10.7 8.3 10.2 97 0.3 SW 13 20 7 11 - - 12.4
30/05:00am 11.0 8.0 10.5 97 0.3 WSW 17 30 9 16 - - 12.4
30/04:30am 11.3 8.3 10.8 97 0.3 WSW 17 26 9 14 - - 12.4
30/04:00am 11.4 9.2 10.9 97 0.3 W 13 26 7 14 - - 12.2
30/03:30am 11.6 9.1 11.1 97 0.3 W 15 26 8 14 - - 12.2
30/03:00am 11.4 8.4 10.8 96 0.3 WSW 17 30 9 16 - - 11.8
30/02:30am 11.7 7.9 11.1 96 0.3 W 22 44 12 24 - - 11.4
30/02:00am 11.9 8.5 11.3 96 0.3 WNW 20 32 11 17 - - 11.4
30/01:30am 11.9 10.2 11.3 96 0.3 WNW 11 17 6 9 - - 11.2
30/01:00am 11.9 10.6 11.1 95 0.4 WNW 9 13 5 7 - - 11.2
30/12:30am 11.8 10.4 11.0 95 0.4 WNW 9 15 5 8 - - 10.6
30/12:00am 11.8 9.6 10.9 94 0.5 W 13 20 7 11 - - 10.4
 
Date/Time
WST
Temp
°C
App
Temp
°C
Dew
Point
Rel
Hum
%
Delta-T
°C
Wind Press
QNH
hPa
Press
MSL
hPa
Rain
since 9 am
mm
Dir
 
Spd
km/h
Gust
km/h
Spd
kts
Gust
kts
29/11:30pm 12.2 10.5 11.3 94 0.5 W 11 28 6 15 - - 9.8
29/11:00pm 12.1 9.6 11.0 93 0.6 WSW 15 30 8 16 - - 8.8
29/10:30pm 12.9 10.6 11.6 92 0.7 WNW 15 28 8 15 - - 7.6
29/10:00pm 13.1 9.3 11.3 89 1.0 NW 22 43 12 23 - - 2.4
29/09:30pm 13.8 10.7 11.7 87 1.1 NW 19 28 10 15 - - 1.2
29/09:00pm 13.7 10.6 11.6 87 1.1 NNW 19 32 10 17 - - 1.2
29/08:30pm 13.5 11.4 11.0 85 1.3 NNW 13 20 7 11 - - 1.2
29/08:00pm 14.0 11.9 11.2 83 1.5 NNW 13 22 7 12 - - 1.2
29/07:30pm 14.2 12.1 11.2 82 1.6 NNW 13 22 7 12 - - 1.2
29/07:00pm 14.5 12.8 11.3 81 1.7 NNW 11 22 6 12 - - 1.2
29/06:30pm 14.7 12.7 11.5 81 1.7 NW 13 22 7 12 - - 1.2
29/06:00pm 15.0 12.9 11.2 78 2.1 WNW 13 22 7 12 - - 1.2
29/05:30pm 15.4 12.6 11.2 76 2.3 WNW 17 30 9 16 - - 1.2
29/05:00pm 15.9 13.3 11.9 77 2.2 WNW 17 35 9 19 - - 1.2
29/04:30pm 16.1 13.0 11.7 75 2.4 WNW 19 32 10 17 - - 1.2
29/04:00pm 16.4 13.7 12.9 80 2.0 WNW 19 32 10 17 - - 1.2
29/03:30pm 16.4 13.1 12.9 80 2.0 WNW 22 35 12 19 - - 1.2
29/03:00pm 16.2 12.2 13.1 82 1.8 WNW 26 44 14 24 - - 1.2
29/02:37pm 16.1 11.9 13.4 84 1.5 WNW 28 50 15 27 - - 1.2
29/02:30pm 16.5 13.2 14.0 85 1.4 WNW 24 44 13 24 - - 1.2
29/02:10pm 14.7 10.1 12.2 85 1.4 WNW 28 46 15 25 - - 1.2
29/02:00pm 15.2 11.4 12.3 83 1.6 WNW 24 48 13 26 - - 1.0
29/01:54pm 15.7 11.5 12.3 80 1.9 WNW 26 48 14 26 - - 1.0
29/01:30pm 17.2 13.7 12.1 72 2.9 NW 22 43 12 23 - - 0.8
29/01:00pm 16.7 13.2 13.4 81 1.9 NW 24 43 13 23 - - 0.8
29/12:30pm 15.8 12.4 13.6 87 1.3 NW 24 43 13 23 - - 0.8
29/12:00pm 16.3 13.5 13.2 82 1.8 NNW 20 32 11 17 - - 0.2
29/11:30am 16.8 14.2 13.7 82 1.8 NNW 20 43 11 23 - - 0.0
29/11:00am 16.6 13.5 14.4 87 1.3 NNW 24 44 13 24 - - 0.0
29/10:30am 16.8 13.7 15.7 93 0.7 NNW 26 43 14 23 - - 0.0
29/10:00am 15.5 13.9 15.0 97 0.3 NNW 17 30 9 16 - - 0.0
29/09:30am 14.0 11.9 13.7 98 0.2 N 17 28 9 15 - - 0.0
29/09:00am 13.9 12.6 13.7 99 0.1 NNE 13 22 7 12 - - 2.0
29/08:30am 12.4 10.6 12.2 99 0.1 NNE 13 22 7 12 - - 2.0
29/08:00am 12.2 10.3 11.9 98 0.2 NE 13 26 7 14 - - 2.0
29/07:30am 11.8 9.8 11.5 98 0.2 NE 13 20 7 11 - - 2.0
29/07:00am 11.4 9.3 11.1 98 0.2 NE 13 17 7 9 - - 2.0
29/06:30am 11.2 9.4 10.7 97 0.3 NNE 11 15 6 8 - - 2.0
29/06:00am 12.3 10.5 12.0 98 0.2 N 13 22 7 12 - - 2.0
29/05:30am 12.2 9.9 11.9 98 0.2 NNW 15 24 8 13 - - 2.0
29/05:00am 12.2 9.9 11.7 97 0.3 NNW 15 20 8 11 - - 2.0
29/04:30am 11.9 10.3 11.4 97 0.3 N 11 15 6 8 - - 2.0
29/04:00am 12.5 11.0 12.0 97 0.3 N 11 15 6 8 - - 2.0
29/03:30am 12.9 11.6 12.4 97 0.3 N 11 17 6 9 - - 2.0
29/03:00am 12.7 11.3 12.1 96 0.3 N 11 15 6 8 - - 2.0
29/02:30am 12.6 11.5 12.0 96 0.3 N 9 13 5 7 - - 2.0
29/02:00am 12.8 11.8 12.2 96 0.3 N 9 13 5 7 - - 2.0
29/01:30am 13.2 12.2 12.4 95 0.4 NNW 9 15 5 8 - - 2.0
29/01:00am 13.4 12.1 12.6 95 0.4 N 11 20 6 11 - - 2.0
29/12:30am 13.4 11.7 12.6 95 0.4 N 13 20 7 11 - - 2.0
29/12:00am 13.1 11.7 12.2 94 0.5 N 11 17 6 9 - - 2.0
 
Date/Time
WST
Temp
°C
App
Temp
°C
Dew
Point
Rel
Hum
%
Delta-T
°C
Wind Press
QNH
hPa
Press
MSL
hPa
Rain
since 9 am
mm
Dir
 
Spd
km/h
Gust
km/h
Spd
kts
Gust
kts
28/11:30pm 13.6 11.9 12.5 93 0.6 N 13 20 7 11 - - 2.0
28/11:00pm 13.6 11.9 12.5 93 0.6 NNW 13 17 7 9 - - 2.0
28/10:30pm 13.7 12.0 12.6 93 0.6 NNW 13 20 7 11 - - 2.0
28/10:00pm 13.3 11.8 12.0 92 0.7 NNW 11 15 6 8 - - 2.0
28/09:30pm 13.7 12.0 12.3 91 0.8 NNW 13 17 7 9 - - 2.0
28/09:00pm 13.6 12.2 12.2 91 0.8 NNW 11 15 6 8 - - 2.0
28/08:30pm 14.0 13.0 12.4 90 0.9 N 9 11 5 6 - - 2.0
28/08:00pm 13.4 12.6 11.6 89 1.0 N 7 11 4 6 - - 2.0
28/07:30pm 13.8 13.0 11.7 87 1.1 NW 7 9 4 5 - - 2.0
28/07:00pm 14.8 13.9 12.7 87 1.2 W 9 13 5 7 - - 2.0
28/06:30pm 15.1 14.6 12.6 85 1.4 W 7 9 4 5 - - 2.0
28/06:00pm 15.7 14.9 13.0 84 1.5 W 9 13 5 7 - - 2.0
28/05:30pm 16.0 15.3 13.3 84 1.5 WNW 9 13 5 7 - - 2.0
28/05:00pm 16.3 15.3 13.4 83 1.7 WNW 11 17 6 9 - - 2.0
28/04:30pm 16.6 15.4 13.9 84 1.6 NW 13 20 7 11 - - 2.0
28/04:00pm 16.4 15.6 13.9 85 1.4 W 11 22 6 12 - - 2.0
28/03:30pm 16.6 15.4 13.9 84 1.6 W 13 22 7 12 - - 2.0
28/03:00pm 17.3 15.3 14.0 81 1.9 WNW 17 26 9 14 - - 2.0
28/02:30pm 17.5 15.4 15.1 86 1.4 WNW 20 33 11 18 - - 2.0
28/02:00pm 16.4 15.9 14.8 90 0.9 WNW 11 20 6 11 - - 2.0
28/01:30pm 16.2 15.6 14.7 91 0.9 NW 11 20 6 11 - - 2.0
28/01:00pm 15.3 14.0 13.7 90 0.9 NW 13 26 7 14 - - 1.8
28/12:30pm 15.3 13.9 13.5 89 1.0 WNW 13 24 7 13 - - 1.6
28/12:00pm 15.6 13.9 12.5 82 1.7 W 13 24 7 13 - - 0.2
28/11:30am 16.6 14.1 12.2 75 2.5 NNW 17 32 9 17 - - 0.0
28/11:00am 17.8 15.8 13.9 78 2.3 NNW 17 32 9 17 - - 0.0
28/10:30am 16.6 15.4 15.0 90 0.9 NNW 15 26 8 14 - - 0.0
28/10:00am 15.8 15.3 15.0 95 0.5 NNW 11 20 6 11 - - 0.0
28/09:30am 14.4 13.9 13.9 97 0.3 NNW 9 20 5 11 - - 0.0
28/09:00am 13.6 12.9 13.1 97 0.3 N 9 17 5 9 - - 0.0
28/08:30am 13.7 13.0 13.2 97 0.3 N 9 17 5 9 - - 0.0
28/08:00am 13.6 12.9 13.1 97 0.3 NNW 9 20 5 11 - - 0.0
28/07:30am 12.7 10.9 12.2 97 0.3 N 13 20 7 11 - - 0.0
28/07:00am 12.6 11.2 12.1 97 0.3 NNW 11 17 6 9 - - 0.0
28/06:30am 12.6 11.1 12.0 96 0.3 NNW 11 15 6 8 - - 0.0
28/06:00am 12.5 11.0 11.9 96 0.3 NNW 11 22 6 12 - - 0.0
28/05:30am 12.3 10.4 11.7 96 0.3 NW 13 24 7 13 - - 0.0
28/05:00am 11.8 10.0 11.0 95 0.4 NW 11 15 6 8 - - 0.0
28/04:30am 11.8 10.4 11.0 95 0.4 NW 9 13 5 7 - - 0.0
28/04:00am 11.8 10.0 10.9 94 0.5 NW 11 17 6 9 - - 0.0
28/03:30am 12.0 9.5 11.1 94 0.5 NW 15 26 8 14 - - 0.0
28/03:00am 12.2 10.1 11.3 94 0.5 NNW 13 22 7 12 - - 0.0
28/02:30am 12.2 9.7 11.1 93 0.6 NNW 15 20 8 11 - - 0.0
28/02:00am 12.6 10.6 11.5 93 0.6 NNW 13 20 7 11 - - 0.0
28/01:30am 12.9 10.9 11.6 92 0.7 NNW 13 22 7 12 - - 0.0
28/01:00am 13.5 11.3 12.2 92 0.7 NNW 15 26 8 14 - - 0.0
28/12:30am 13.5 11.3 12.1 91 0.8 NW 15 22 8 12 - - 0.0
28/12:00am 14.0 11.6 12.6 91 0.8 NW 17 26 9 14 - - 0.0
 
Date/Time
WST
Temp
°C
App
Temp
°C
Dew
Point
Rel
Hum
%
Delta-T
°C
Wind Press
QNH
hPa
Press
MSL
hPa
Rain
since 9 am
mm
Dir
 
Spd
km/h
Gust
km/h
Spd
kts
Gust
kts
27/11:30pm 14.1 12.0 12.5 90 0.9 NW 15 26 8 14 - - 0.0
27/11:00pm 13.5 11.1 11.4 87 1.1 NNW 15 24 8 13 - - 0.0
27/10:30pm 13.6 10.5 10.2 80 1.8 NW 17 26 9 14 - - 0.0
27/10:00pm 13.2 9.8 7.6 69 2.8 NW 15 22 8 12 - - 0.0
27/09:30pm 14.1 10.5 6.7 61 3.7 NW 15 22 8 12 - - 0.0
27/09:00pm 15.2 11.3 5.4 52 4.8 NNW 15 24 8 13 - - 0.0
27/08:30pm 15.5 11.7 5.7 52 4.8 NNW 15 20 8 11 - - 0.0
27/08:00pm 15.9 12.2 6.3 53 4.8 N 15 24 8 13 - - 0.0
27/07:30pm 15.0 11.0 6.8 58 4.1 NE 17 24 9 13 - - 0.0
27/07:00pm 15.3 11.3 6.6 56 4.3 ENE 17 24 9 13 - - 0.0
27/06:30pm 15.8 12.2 6.8 55 4.5 ENE 15 22 8 12 - - 0.0
27/06:00pm 16.9 13.3 6.7 51 5.1 ENE 15 20 8 11 - - 0.0
27/05:30pm 18.6 14.9 6.1 44 6.3 NE 15 24 8 13 - - 0.0
27/05:00pm 19.9 15.8 6.3 41 6.9 NE 17 30 9 16 - - 0.0
27/04:30pm 21.0 17.2 5.8 37 7.7 NE 15 35 8 19 - - 0.0
27/04:00pm 21.3 17.6 6.4 38 7.7 NE 15 26 8 14 - - 0.0

Other Formats:

Comma delimited format used in spreadsheet applications
http://www.bom.gov.au/fwo/IDW60801/IDW60801.95610.axf

JavaScript Object Notation format (JSON) in row-major order
http://www.bom.gov.au/fwo/IDW60801/IDW60801.95610.json